sensor_id;sensor_type;location;lat;lon;timestamp;P1;durP1;ratioP1;P2;durP2;ratioP2
52102;SDS011;38101;53.126;6.878;2022-08-19T00:02:03;3.58;;;2.63;;
52102;SDS011;38101;53.126;6.878;2022-08-19T00:04:31;3.75;;;2.50;;
52102;SDS011;38101;53.126;6.878;2022-08-19T00:07:00;5.10;;;3.33;;
52102;SDS011;38101;53.126;6.878;2022-08-19T00:09:26;5.25;;;4.28;;
52102;SDS011;38101;53.126;6.878;2022-08-19T00:11:52;5.43;;;4.53;;
52102;SDS011;38101;53.126;6.878;2022-08-19T00:14:20;6.07;;;4.80;;
52102;SDS011;38101;53.126;6.878;2022-08-19T00:16:47;5.75;;;4.70;;
52102;SDS011;38101;53.126;6.878;2022-08-19T00:19:14;6.80;;;4.70;;
52102;SDS011;38101;53.126;6.878;2022-08-19T00:21:41;7.03;;;4.65;;
52102;SDS011;38101;53.126;6.878;2022-08-19T00:24:07;3.75;;;3.08;;
52102;SDS011;38101;53.126;6.878;2022-08-19T00:26:35;4.70;;;3.17;;
52102;SDS011;38101;53.126;6.878;2022-08-19T00:29:01;4.32;;;3.10;;
52102;SDS011;38101;53.126;6.878;2022-08-19T00:31:28;5.55;;;4.03;;
52102;SDS011;38101;53.126;6.878;2022-08-19T00:33:54;5.90;;;4.15;;
52102;SDS011;38101;53.126;6.878;2022-08-19T00:36:19;5.38;;;4.32;;
52102;SDS011;38101;53.126;6.878;2022-08-19T00:38:46;4.75;;;4.03;;
52102;SDS011;38101;53.126;6.878;2022-08-19T00:41:13;5.95;;;4.45;;
52102;SDS011;38101;53.126;6.878;2022-08-19T00:43:40;5.85;;;4.53;;
52102;SDS011;38101;53.126;6.878;2022-08-19T00:46:06;6.55;;;4.93;;
52102;SDS011;38101;53.126;6.878;2022-08-19T00:48:32;8.00;;;5.65;;
52102;SDS011;38101;53.126;6.878;2022-08-19T00:50:59;6.25;;;5.25;;
52102;SDS011;38101;53.126;6.878;2022-08-19T00:53:26;6.35;;;5.38;;
52102;SDS011;38101;53.126;6.878;2022-08-19T00:55:55;7.30;;;5.80;;
52102;SDS011;38101;53.126;6.878;2022-08-19T00:58:24;7.45;;;5.65;;
52102;SDS011;38101;53.126;6.878;2022-08-19T01:00:53;7.82;;;6.22;;
52102;SDS011;38101;53.126;6.878;2022-08-19T01:03:20;7.22;;;5.90;;
52102;SDS011;38101;53.126;6.878;2022-08-19T01:05:47;7.80;;;6.70;;
52102;SDS011;38101;53.126;6.878;2022-08-19T01:08:14;9.70;;;6.03;;
52102;SDS011;38101;53.126;6.878;2022-08-19T01:10:43;4.38;;;3.75;;
52102;SDS011;38101;53.126;6.878;2022-08-19T01:13:14;3.80;;;2.97;;
52102;SDS011;38101;53.126;6.878;2022-08-19T01:15:43;5.30;;;3.83;;
52102;SDS011;38101;53.126;6.878;2022-08-19T01:18:12;6.97;;;4.68;;
52102;SDS011;38101;53.126;6.878;2022-08-19T01:20:40;6.80;;;5.60;;
52102;SDS011;38101;53.126;6.878;2022-08-19T01:23:07;7.00;;;4.47;;
52102;SDS011;38101;53.126;6.878;2022-08-19T01:25:39;5.30;;;4.80;;
52102;SDS011;38101;53.126;6.878;2022-08-19T01:28:17;6.93;;;4.72;;
52102;SDS011;38101;53.126;6.878;2022-08-19T01:30:46;4.90;;;3.20;;
52102;SDS011;38101;53.126;6.878;2022-08-19T01:33:12;3.88;;;2.72;;
52102;SDS011;38101;53.126;6.878;2022-08-19T01:35:38;4.00;;;2.60;;
52102;SDS011;38101;53.126;6.878;2022-08-19T01:38:06;3.88;;;2.60;;
52102;SDS011;38101;53.126;6.878;2022-08-19T01:40:36;5.00;;;3.38;;
52102;SDS011;38101;53.126;6.878;2022-08-19T01:43:04;7.78;;;3.80;;
52102;SDS011;38101;53.126;6.878;2022-08-19T01:45:31;4.43;;;2.95;;
52102;SDS011;38101;53.126;6.878;2022-08-19T01:47:58;3.80;;;2.50;;
52102;SDS011;38101;53.126;6.878;2022-08-19T01:50:24;3.85;;;3.10;;
52102;SDS011;38101;53.126;6.878;2022-08-19T01:52:51;4.50;;;3.53;;
52102;SDS011;38101;53.126;6.878;2022-08-19T01:55:18;4.47;;;3.63;;
52102;SDS011;38101;53.126;6.878;2022-08-19T01:57:47;4.63;;;3.40;;
52102;SDS011;38101;53.126;6.878;2022-08-19T02:00:17;6.13;;;3.70;;
52102;SDS011;38101;53.126;6.878;2022-08-19T02:02:44;4.82;;;3.50;;
52102;SDS011;38101;53.126;6.878;2022-08-19T02:05:10;4.55;;;3.40;;
52102;SDS011;38101;53.126;6.878;2022-08-19T02:07:37;4.18;;;3.20;;
52102;SDS011;38101;53.126;6.878;2022-08-19T02:10:09;5.90;;;4.30;;
52102;SDS011;38101;53.126;6.878;2022-08-19T02:12:38;7.28;;;5.15;;
52102;SDS011;38101;53.126;6.878;2022-08-19T02:15:04;6.35;;;5.05;;
52102;SDS011;38101;53.126;6.878;2022-08-19T02:17:31;7.05;;;5.05;;
52102;SDS011;38101;53.126;6.878;2022-08-19T02:19:56;5.32;;;4.18;;
52102;SDS011;38101;53.126;6.878;2022-08-19T02:22:22;4.88;;;3.42;;
52102;SDS011;38101;53.126;6.878;2022-08-19T02:24:50;3.95;;;3.00;;
52102;SDS011;38101;53.126;6.878;2022-08-19T02:27:16;3.25;;;2.55;;
52102;SDS011;38101;53.126;6.878;2022-08-19T02:29:42;5.18;;;3.50;;
52102;SDS011;38101;53.126;6.878;2022-08-19T02:32:10;5.40;;;3.60;;
52102;SDS011;38101;53.126;6.878;2022-08-19T02:34:36;6.43;;;5.25;;
52102;SDS011;38101;53.126;6.878;2022-08-19T02:37:01;8.88;;;6.88;;
52102;SDS011;38101;53.126;6.878;2022-08-19T02:39:27;8.68;;;6.30;;
52102;SDS011;38101;53.126;6.878;2022-08-19T02:41:53;7.45;;;6.10;;
52102;SDS011;38101;53.126;6.878;2022-08-19T02:44:18;7.55;;;5.88;;
52102;SDS011;38101;53.126;6.878;2022-08-19T02:46:47;6.63;;;5.55;;
52102;SDS011;38101;53.126;6.878;2022-08-19T02:49:15;6.95;;;5.53;;
52102;SDS011;38101;53.126;6.878;2022-08-19T02:51:42;9.02;;;6.93;;
52102;SDS011;38101;53.126;6.878;2022-08-19T02:54:09;8.15;;;6.03;;
52102;SDS011;38101;53.126;6.878;2022-08-19T02:56:36;8.02;;;6.40;;
52102;SDS011;38101;53.126;6.878;2022-08-19T02:59:05;8.30;;;6.20;;
52102;SDS011;38101;53.126;6.878;2022-08-19T03:01:33;7.70;;;5.82;;
52102;SDS011;38101;53.126;6.878;2022-08-19T03:04:00;7.47;;;6.10;;
52102;SDS011;38101;53.126;6.878;2022-08-19T03:06:27;7.57;;;5.68;;
52102;SDS011;38101;53.126;6.878;2022-08-19T03:08:54;8.27;;;5.30;;
52102;SDS011;38101;53.126;6.878;2022-08-19T03:13:47;7.15;;;5.70;;
52102;SDS011;38101;53.126;6.878;2022-08-19T03:16:20;7.30;;;6.20;;
52102;SDS011;38101;53.126;6.878;2022-08-19T03:18:48;7.90;;;6.20;;
52102;SDS011;38101;53.126;6.878;2022-08-19T03:21:18;7.32;;;5.70;;
52102;SDS011;38101;53.126;6.878;2022-08-19T03:23:46;8.50;;;6.35;;
52102;SDS011;38101;53.126;6.878;2022-08-19T03:26:12;8.88;;;6.63;;
52102;SDS011;38101;53.126;6.878;2022-08-19T03:28:40;8.82;;;7.22;;
52102;SDS011;38101;53.126;6.878;2022-08-19T03:31:07;12.13;;;6.07;;
52102;SDS011;38101;53.126;6.878;2022-08-19T03:33:37;8.38;;;5.60;;
52102;SDS011;38101;53.126;6.878;2022-08-19T03:36:07;7.03;;;4.35;;
52102;SDS011;38101;53.126;6.878;2022-08-19T03:38:45;6.07;;;3.10;;
52102;SDS011;38101;53.126;6.878;2022-08-19T03:41:18;4.25;;;2.90;;
52102;SDS011;38101;53.126;6.878;2022-08-19T03:43:46;7.60;;;5.30;;
52102;SDS011;38101;53.126;6.878;2022-08-19T03:46:13;7.63;;;5.20;;
52102;SDS011;38101;53.126;6.878;2022-08-19T03:48:41;6.00;;;4.20;;
52102;SDS011;38101;53.126;6.878;2022-08-19T03:51:15;5.53;;;3.50;;
52102;SDS011;38101;53.126;6.878;2022-08-19T03:53:44;4.72;;;3.30;;
52102;SDS011;38101;53.126;6.878;2022-08-19T03:56:11;6.10;;;2.67;;
52102;SDS011;38101;53.126;6.878;2022-08-19T03:58:38;4.35;;;2.30;;
52102;SDS011;38101;53.126;6.878;2022-08-19T04:01:11;6.20;;;3.08;;
52102;SDS011;38101;53.126;6.878;2022-08-19T04:03:40;3.78;;;2.53;;
52102;SDS011;38101;53.126;6.878;2022-08-19T04:06:13;4.60;;;2.80;;
52102;SDS011;38101;53.126;6.878;2022-08-19T04:08:42;3.50;;;2.67;;
52102;SDS011;38101;53.126;6.878;2022-08-19T04:11:10;3.65;;;2.60;;
52102;SDS011;38101;53.126;6.878;2022-08-19T04:13:36;3.70;;;2.70;;
52102;SDS011;38101;53.126;6.878;2022-08-19T04:16:03;3.70;;;2.80;;
52102;SDS011;38101;53.126;6.878;2022-08-19T04:18:29;5.53;;;3.05;;
52102;SDS011;38101;53.126;6.878;2022-08-19T04:20:55;4.95;;;3.15;;
52102;SDS011;38101;53.126;6.878;2022-08-19T04:23:22;6.95;;;3.20;;
52102;SDS011;38101;53.126;6.878;2022-08-19T04:25:49;3.63;;;2.53;;
52102;SDS011;38101;53.126;6.878;2022-08-19T04:28:14;4.72;;;2.58;;
52102;SDS011;38101;53.126;6.878;2022-08-19T04:30:44;2.78;;;2.10;;
52102;SDS011;38101;53.126;6.878;2022-08-19T04:33:16;3.53;;;2.60;;
52102;SDS011;38101;53.126;6.878;2022-08-19T04:35:45;4.20;;;2.70;;
52102;SDS011;38101;53.126;6.878;2022-08-19T04:38:14;4.10;;;3.00;;
52102;SDS011;38101;53.126;6.878;2022-08-19T04:40:41;4.20;;;3.10;;
52102;SDS011;38101;53.126;6.878;2022-08-19T04:43:27;4.90;;;3.00;;
52102;SDS011;38101;53.126;6.878;2022-08-19T04:45:53;3.90;;;3.13;;
52102;SDS011;38101;53.126;6.878;2022-08-19T04:48:19;4.75;;;3.42;;
52102;SDS011;38101;53.126;6.878;2022-08-19T04:50:57;4.75;;;3.60;;
52102;SDS011;38101;53.126;6.878;2022-08-19T04:53:30;5.22;;;3.50;;
52102;SDS011;38101;53.126;6.878;2022-08-19T04:55:58;7.78;;;3.70;;
52102;SDS011;38101;53.126;6.878;2022-08-19T04:58:26;7.32;;;4.70;;
52102;SDS011;38101;53.126;6.878;2022-08-19T05:00:52;11.48;;;5.90;;
52102;SDS011;38101;53.126;6.878;2022-08-19T05:03:18;7.05;;;4.88;;
52102;SDS011;38101;53.126;6.878;2022-08-19T05:05:46;8.93;;;5.57;;
52102;SDS011;38101;53.126;6.878;2022-08-19T05:08:14;6.88;;;4.65;;
52102;SDS011;38101;53.126;6.878;2022-08-19T05:10:49;7.25;;;4.78;;
52102;SDS011;38101;53.126;6.878;2022-08-19T05:13:16;5.50;;;4.05;;
52102;SDS011;38101;53.126;6.878;2022-08-19T05:15:43;6.07;;;4.85;;
52102;SDS011;38101;53.126;6.878;2022-08-19T05:18:19;7.07;;;4.80;;
52102;SDS011;38101;53.126;6.878;2022-08-19T05:21:07;6.32;;;4.25;;
52102;SDS011;38101;53.126;6.878;2022-08-19T05:23:54;7.95;;;4.28;;
52102;SDS011;38101;53.126;6.878;2022-08-19T05:26:19;6.13;;;4.68;;
52102;SDS011;38101;53.126;6.878;2022-08-19T05:28:45;6.72;;;4.63;;
52102;SDS011;38101;53.126;6.878;2022-08-19T05:31:11;7.25;;;5.70;;
52102;SDS011;38101;53.126;6.878;2022-08-19T05:33:37;6.78;;;5.32;;
52102;SDS011;38101;53.126;6.878;2022-08-19T05:36:04;7.70;;;5.25;;
52102;SDS011;38101;53.126;6.878;2022-08-19T05:38:32;6.15;;;5.15;;
52102;SDS011;38101;53.126;6.878;2022-08-19T05:41:05;7.40;;;5.45;;
52102;SDS011;38101;53.126;6.878;2022-08-19T05:43:34;6.38;;;5.20;;
52102;SDS011;38101;53.126;6.878;2022-08-19T05:46:00;7.03;;;5.30;;
52102;SDS011;38101;53.126;6.878;2022-08-19T05:48:26;6.68;;;5.22;;
52102;SDS011;38101;53.126;6.878;2022-08-19T05:50:52;7.60;;;6.03;;
52102;SDS011;38101;53.126;6.878;2022-08-19T05:53:18;7.47;;;6.00;;
52102;SDS011;38101;53.126;6.878;2022-08-19T05:55:44;9.98;;;7.00;;
52102;SDS011;38101;53.126;6.878;2022-08-19T05:58:10;11.13;;;8.27;;
52102;SDS011;38101;53.126;6.878;2022-08-19T06:00:36;10.43;;;7.43;;
52102;SDS011;38101;53.126;6.878;2022-08-19T06:03:03;9.98;;;7.40;;
52102;SDS011;38101;53.126;6.878;2022-08-19T06:05:32;10.57;;;7.97;;
52102;SDS011;38101;53.126;6.878;2022-08-19T06:07:58;13.77;;;8.75;;
52102;SDS011;38101;53.126;6.878;2022-08-19T06:10:24;13.90;;;8.25;;
52102;SDS011;38101;53.126;6.878;2022-08-19T06:12:49;12.65;;;8.60;;
52102;SDS011;38101;53.126;6.878;2022-08-19T06:15:15;13.05;;;8.82;;
52102;SDS011;38101;53.126;6.878;2022-08-19T06:17:41;15.90;;;10.35;;
52102;SDS011;38101;53.126;6.878;2022-08-19T06:20:10;13.18;;;10.05;;
52102;SDS011;38101;53.126;6.878;2022-08-19T06:22:38;12.77;;;9.75;;
52102;SDS011;38101;53.126;6.878;2022-08-19T06:25:06;15.63;;;10.32;;
52102;SDS011;38101;53.126;6.878;2022-08-19T06:27:34;14.57;;;9.75;;
52102;SDS011;38101;53.126;6.878;2022-08-19T06:30:00;16.75;;;11.05;;
52102;SDS011;38101;53.126;6.878;2022-08-19T06:32:26;15.18;;;11.18;;
52102;SDS011;38101;53.126;6.878;2022-08-19T06:34:52;15.80;;;11.07;;
52102;SDS011;38101;53.126;6.878;2022-08-19T06:37:17;16.88;;;10.90;;
52102;SDS011;38101;53.126;6.878;2022-08-19T06:39:43;17.73;;;11.80;;
52102;SDS011;38101;53.126;6.878;2022-08-19T06:42:10;16.98;;;12.43;;
52102;SDS011;38101;53.126;6.878;2022-08-19T06:44:41;17.65;;;11.85;;
52102;SDS011;38101;53.126;6.878;2022-08-19T06:47:09;17.42;;;12.18;;
52102;SDS011;38101;53.126;6.878;2022-08-19T06:49:37;16.95;;;12.32;;
52102;SDS011;38101;53.126;6.878;2022-08-19T06:52:04;18.38;;;12.52;;
52102;SDS011;38101;53.126;6.878;2022-08-19T06:54:30;17.08;;;12.80;;
52102;SDS011;38101;53.126;6.878;2022-08-19T06:57:00;16.85;;;11.43;;
52102;SDS011;38101;53.126;6.878;2022-08-19T06:59:27;15.00;;;12.02;;
52102;SDS011;38101;53.126;6.878;2022-08-19T07:01:56;16.83;;;12.07;;
52102;SDS011;38101;53.126;6.878;2022-08-19T07:04:25;18.58;;;13.07;;
52102;SDS011;38101;53.126;6.878;2022-08-19T07:06:57;16.23;;;12.07;;
52102;SDS011;38101;53.126;6.878;2022-08-19T07:09:31;21.85;;;13.38;;
52102;SDS011;38101;53.126;6.878;2022-08-19T07:11:57;18.73;;;12.20;;
52102;SDS011;38101;53.126;6.878;2022-08-19T07:14:24;17.48;;;11.60;;
52102;SDS011;38101;53.126;6.878;2022-08-19T07:16:52;16.13;;;12.43;;
52102;SDS011;38101;53.126;6.878;2022-08-19T07:19:20;15.73;;;11.68;;
52102;SDS011;38101;53.126;6.878;2022-08-19T07:21:48;19.27;;;12.63;;
52102;SDS011;38101;53.126;6.878;2022-08-19T07:24:17;15.65;;;11.85;;
52102;SDS011;38101;53.126;6.878;2022-08-19T07:26:44;13.80;;;11.57;;
52102;SDS011;38101;53.126;6.878;2022-08-19T07:29:11;16.58;;;12.32;;
52102;SDS011;38101;53.126;6.878;2022-08-19T07:31:37;15.80;;;11.95;;
52102;SDS011;38101;53.126;6.878;2022-08-19T07:34:04;15.75;;;11.40;;
52102;SDS011;38101;53.126;6.878;2022-08-19T07:36:32;14.30;;;10.50;;
52102;SDS011;38101;53.126;6.878;2022-08-19T07:39:00;12.65;;;10.82;;
52102;SDS011;38101;53.126;6.878;2022-08-19T07:41:29;12.45;;;9.73;;
52102;SDS011;38101;53.126;6.878;2022-08-19T07:43:56;11.90;;;9.98;;
52102;SDS011;38101;53.126;6.878;2022-08-19T07:46:23;13.50;;;10.55;;
52102;SDS011;38101;53.126;6.878;2022-08-19T07:48:49;14.88;;;10.65;;
52102;SDS011;38101;53.126;6.878;2022-08-19T07:51:17;12.80;;;10.32;;
52102;SDS011;38101;53.126;6.878;2022-08-19T07:53:45;14.73;;;10.88;;
52102;SDS011;38101;53.126;6.878;2022-08-19T07:56:13;14.50;;;10.88;;
52102;SDS011;38101;53.126;6.878;2022-08-19T07:58:41;15.48;;;10.82;;
52102;SDS011;38101;53.126;6.878;2022-08-19T08:01:10;15.27;;;10.50;;
52102;SDS011;38101;53.126;6.878;2022-08-19T08:03:37;12.82;;;9.77;;
52102;SDS011;38101;53.126;6.878;2022-08-19T08:06:22;13.38;;;10.43;;
52102;SDS011;38101;53.126;6.878;2022-08-19T08:11:36;15.82;;;11.00;;
52102;SDS011;38101;53.126;6.878;2022-08-19T08:14:07;15.05;;;11.25;;
52102;SDS011;38101;53.126;6.878;2022-08-19T08:16:37;13.02;;;10.10;;
52102;SDS011;38101;53.126;6.878;2022-08-19T08:19:04;13.73;;;10.23;;
52102;SDS011;38101;53.126;6.878;2022-08-19T08:21:31;12.02;;;10.27;;
52102;SDS011;38101;53.126;6.878;2022-08-19T08:23:58;12.27;;;9.52;;
52102;SDS011;38101;53.126;6.878;2022-08-19T08:26:24;11.88;;;10.25;;
52102;SDS011;38101;53.126;6.878;2022-08-19T08:28:50;13.27;;;10.15;;
52102;SDS011;38101;53.126;6.878;2022-08-19T08:31:17;11.98;;;9.77;;
52102;SDS011;38101;53.126;6.878;2022-08-19T08:33:44;12.38;;;10.35;;
52102;SDS011;38101;53.126;6.878;2022-08-19T08:36:11;13.40;;;10.27;;
52102;SDS011;38101;53.126;6.878;2022-08-19T08:38:38;13.38;;;10.20;;
52102;SDS011;38101;53.126;6.878;2022-08-19T08:41:16;13.80;;;10.30;;
52102;SDS011;38101;53.126;6.878;2022-08-19T08:44:02;11.30;;;10.10;;
52102;SDS011;38101;53.126;6.878;2022-08-19T08:46:39;14.48;;;10.73;;
52102;SDS011;38101;53.126;6.878;2022-08-19T08:49:21;13.27;;;10.88;;
52102;SDS011;38101;53.126;6.878;2022-08-19T08:54:41;16.60;;;11.57;;
52102;SDS011;38101;53.126;6.878;2022-08-19T08:57:18;15.40;;;11.10;;
52102;SDS011;38101;53.126;6.878;2022-08-19T09:00:05;12.75;;;11.15;;
52102;SDS011;38101;53.126;6.878;2022-08-19T09:02:35;12.90;;;10.27;;
52102;SDS011;38101;53.126;6.878;2022-08-19T09:05:00;13.48;;;10.73;;
52102;SDS011;38101;53.126;6.878;2022-08-19T09:10:03;12.82;;;10.27;;
52102;SDS011;38101;53.126;6.878;2022-08-19T09:12:51;10.45;;;9.35;;
52102;SDS011;38101;53.126;6.878;2022-08-19T09:15:18;9.38;;;8.35;;
52102;SDS011;38101;53.126;6.878;2022-08-19T09:17:58;9.80;;;8.30;;
52102;SDS011;38101;53.126;6.878;2022-08-19T09:20:27;9.05;;;7.10;;
52102;SDS011;38101;53.126;6.878;2022-08-19T09:22:52;10.48;;;8.35;;
52102;SDS011;38101;53.126;6.878;2022-08-19T09:25:19;8.48;;;6.90;;
52102;SDS011;38101;53.126;6.878;2022-08-19T09:27:49;9.48;;;7.28;;
52102;SDS011;38101;53.126;6.878;2022-08-19T09:30:19;9.07;;;6.93;;
52102;SDS011;38101;53.126;6.878;2022-08-19T09:32:47;7.75;;;5.68;;
52102;SDS011;38101;53.126;6.878;2022-08-19T09:35:14;8.38;;;6.43;;
52102;SDS011;38101;53.126;6.878;2022-08-19T09:37:41;8.48;;;6.60;;
52102;SDS011;38101;53.126;6.878;2022-08-19T09:40:08;8.10;;;5.93;;
52102;SDS011;38101;53.126;6.878;2022-08-19T09:42:36;8.25;;;5.80;;
52102;SDS011;38101;53.126;6.878;2022-08-19T09:45:02;9.07;;;6.13;;
52102;SDS011;38101;53.126;6.878;2022-08-19T09:47:28;6.75;;;5.68;;
52102;SDS011;38101;53.126;6.878;2022-08-19T09:49:54;7.25;;;5.90;;
52102;SDS011;38101;53.126;6.878;2022-08-19T09:52:20;7.22;;;5.38;;
52102;SDS011;38101;53.126;6.878;2022-08-19T09:54:45;7.03;;;5.55;;
52102;SDS011;38101;53.126;6.878;2022-08-19T09:57:11;8.00;;;5.20;;
52102;SDS011;38101;53.126;6.878;2022-08-19T09:59:38;6.03;;;4.40;;
52102;SDS011;38101;53.126;6.878;2022-08-19T10:02:04;8.23;;;4.75;;
52102;SDS011;38101;53.126;6.878;2022-08-19T10:04:30;6.55;;;4.90;;
52102;SDS011;38101;53.126;6.878;2022-08-19T10:07:14;5.57;;;4.18;;
52102;SDS011;38101;53.126;6.878;2022-08-19T10:09:40;5.28;;;4.38;;
52102;SDS011;38101;53.126;6.878;2022-08-19T10:12:06;5.63;;;4.50;;
52102;SDS011;38101;53.126;6.878;2022-08-19T10:14:32;7.30;;;4.57;;
52102;SDS011;38101;53.126;6.878;2022-08-19T10:16:58;4.95;;;4.38;;
52102;SDS011;38101;53.126;6.878;2022-08-19T10:19:25;6.50;;;5.18;;
52102;SDS011;38101;53.126;6.878;2022-08-19T10:21:57;6.32;;;5.32;;
52102;SDS011;38101;53.126;6.878;2022-08-19T10:24:23;5.43;;;4.78;;
52102;SDS011;38101;53.126;6.878;2022-08-19T10:26:51;5.65;;;4.47;;
52102;SDS011;38101;53.126;6.878;2022-08-19T10:29:16;5.25;;;4.68;;
52102;SDS011;38101;53.126;6.878;2022-08-19T10:31:42;5.50;;;4.70;;
52102;SDS011;38101;53.126;6.878;2022-08-19T10:34:08;5.80;;;5.13;;
52102;SDS011;38101;53.126;6.878;2022-08-19T10:36:34;5.10;;;4.60;;
52102;SDS011;38101;53.126;6.878;2022-08-19T10:39:03;6.07;;;5.00;;
52102;SDS011;38101;53.126;6.878;2022-08-19T10:41:34;5.90;;;5.30;;
52102;SDS011;38101;53.126;6.878;2022-08-19T10:44:04;7.90;;;5.53;;
52102;SDS011;38101;53.126;6.878;2022-08-19T10:46:32;6.93;;;5.22;;
52102;SDS011;38101;53.126;6.878;2022-08-19T10:49:01;7.68;;;5.68;;
52102;SDS011;38101;53.126;6.878;2022-08-19T10:51:28;7.43;;;6.13;;
52102;SDS011;38101;53.126;6.878;2022-08-19T10:54:12;7.40;;;5.85;;
52102;SDS011;38101;53.126;6.878;2022-08-19T10:56:38;6.93;;;5.63;;
52102;SDS011;38101;53.126;6.878;2022-08-19T10:59:16;5.97;;;5.30;;
52102;SDS011;38101;53.126;6.878;2022-08-19T11:01:44;6.28;;;5.43;;
52102;SDS011;38101;53.126;6.878;2022-08-19T11:04:10;6.85;;;5.75;;
52102;SDS011;38101;53.126;6.878;2022-08-19T11:06:39;7.15;;;6.38;;
52102;SDS011;38101;53.126;6.878;2022-08-19T11:09:06;6.35;;;5.72;;
52102;SDS011;38101;53.126;6.878;2022-08-19T11:11:33;6.85;;;6.10;;
52102;SDS011;38101;53.126;6.878;2022-08-19T11:14:04;7.05;;;6.22;;
52102;SDS011;38101;53.126;6.878;2022-08-19T11:16:30;9.05;;;5.93;;
52102;SDS011;38101;53.126;6.878;2022-08-19T11:18:57;7.43;;;6.30;;
52102;SDS011;38101;53.126;6.878;2022-08-19T11:21:25;9.60;;;7.05;;
52102;SDS011;38101;53.126;6.878;2022-08-19T11:23:54;7.05;;;6.13;;
52102;SDS011;38101;53.126;6.878;2022-08-19T11:26:21;8.63;;;7.82;;
52102;SDS011;38101;53.126;6.878;2022-08-19T11:28:48;7.65;;;6.88;;
52102;SDS011;38101;53.126;6.878;2022-08-19T11:31:17;8.32;;;7.05;;
52102;SDS011;38101;53.126;6.878;2022-08-19T11:33:44;6.93;;;6.22;;
52102;SDS011;38101;53.126;6.878;2022-08-19T11:36:11;8.18;;;7.07;;
52102;SDS011;38101;53.126;6.878;2022-08-19T11:38:37;8.70;;;6.90;;
52102;SDS011;38101;53.126;6.878;2022-08-19T11:41:04;7.78;;;7.00;;
52102;SDS011;38101;53.126;6.878;2022-08-19T11:43:35;8.38;;;7.10;;
52102;SDS011;38101;53.126;6.878;2022-08-19T11:46:05;8.75;;;6.70;;
52102;SDS011;38101;53.126;6.878;2022-08-19T11:48:32;7.18;;;6.30;;
52102;SDS011;38101;53.126;6.878;2022-08-19T11:50:58;7.80;;;6.10;;
52102;SDS011;38101;53.126;6.878;2022-08-19T11:53:23;6.95;;;6.25;;
52102;SDS011;38101;53.126;6.878;2022-08-19T11:55:50;7.72;;;5.70;;
52102;SDS011;38101;53.126;6.878;2022-08-19T11:58:20;7.20;;;6.22;;
52102;SDS011;38101;53.126;6.878;2022-08-19T12:00:46;9.82;;;6.90;;
52102;SDS011;38101;53.126;6.878;2022-08-19T12:03:12;7.05;;;6.22;;
52102;SDS011;38101;53.126;6.878;2022-08-19T12:05:39;8.05;;;6.85;;
52102;SDS011;38101;53.126;6.878;2022-08-19T12:08:06;8.85;;;7.15;;
52102;SDS011;38101;53.126;6.878;2022-08-19T12:10:32;7.53;;;5.65;;
52102;SDS011;38101;53.126;6.878;2022-08-19T12:12:59;7.45;;;6.25;;
52102;SDS011;38101;53.126;6.878;2022-08-19T12:15:26;9.02;;;6.40;;
52102;SDS011;38101;53.126;6.878;2022-08-19T12:17:53;8.07;;;7.28;;
52102;SDS011;38101;53.126;6.878;2022-08-19T12:20:22;6.75;;;6.07;;
52102;SDS011;38101;53.126;6.878;2022-08-19T12:22:49;8.02;;;6.13;;
52102;SDS011;38101;53.126;6.878;2022-08-19T12:25:16;9.88;;;8.30;;
52102;SDS011;38101;53.126;6.878;2022-08-19T12:27:42;10.00;;;9.00;;
52102;SDS011;38101;53.126;6.878;2022-08-19T12:30:10;9.77;;;8.05;;
52102;SDS011;38101;53.126;6.878;2022-08-19T12:32:37;10.20;;;8.27;;
52102;SDS011;38101;53.126;6.878;2022-08-19T12:35:03;9.98;;;8.77;;
52102;SDS011;38101;53.126;6.878;2022-08-19T12:37:30;11.32;;;8.10;;
52102;SDS011;38101;53.126;6.878;2022-08-19T12:39:57;11.60;;;8.52;;
52102;SDS011;38101;53.126;6.878;2022-08-19T12:42:23;10.25;;;9.15;;
52102;SDS011;38101;53.126;6.878;2022-08-19T12:44:49;9.65;;;8.70;;
52102;SDS011;38101;53.126;6.878;2022-08-19T12:47:17;11.18;;;9.25;;
52102;SDS011;38101;53.126;6.878;2022-08-19T12:49:43;10.75;;;9.60;;
52102;SDS011;38101;53.126;6.878;2022-08-19T12:52:11;10.32;;;9.32;;
52102;SDS011;38101;53.126;6.878;2022-08-19T12:54:40;10.75;;;9.65;;
52102;SDS011;38101;53.126;6.878;2022-08-19T12:57:06;10.10;;;9.20;;
52102;SDS011;38101;53.126;6.878;2022-08-19T12:59:33;11.60;;;10.43;;
52102;SDS011;38101;53.126;6.878;2022-08-19T13:02:01;10.60;;;9.50;;
52102;SDS011;38101;53.126;6.878;2022-08-19T13:04:30;11.05;;;8.50;;
52102;SDS011;38101;53.126;6.878;2022-08-19T13:06:55;10.98;;;9.75;;
52102;SDS011;38101;53.126;6.878;2022-08-19T13:09:23;12.63;;;11.32;;
52102;SDS011;38101;53.126;6.878;2022-08-19T13:11:48;11.50;;;10.32;;
52102;SDS011;38101;53.126;6.878;2022-08-19T13:14:14;11.07;;;10.05;;
52102;SDS011;38101;53.126;6.878;2022-08-19T13:16:40;12.30;;;10.55;;
52102;SDS011;38101;53.126;6.878;2022-08-19T13:19:06;10.90;;;9.80;;
52102;SDS011;38101;53.126;6.878;2022-08-19T13:21:32;11.43;;;10.25;;
52102;SDS011;38101;53.126;6.878;2022-08-19T13:23:58;10.30;;;9.25;;
52102;SDS011;38101;53.126;6.878;2022-08-19T13:26:24;9.90;;;8.90;;
52102;SDS011;38101;53.126;6.878;2022-08-19T13:28:50;9.98;;;8.85;;
52102;SDS011;38101;53.126;6.878;2022-08-19T13:31:35;11.25;;;9.80;;
52102;SDS011;38101;53.126;6.878;2022-08-19T13:34:26;11.25;;;10.00;;
52102;SDS011;38101;53.126;6.878;2022-08-19T13:36:54;10.48;;;9.35;;
52102;SDS011;38101;53.126;6.878;2022-08-19T13:39:20;10.40;;;9.30;;
52102;SDS011;38101;53.126;6.878;2022-08-19T13:41:48;10.48;;;9.43;;
52102;SDS011;38101;53.126;6.878;2022-08-19T13:44:18;9.68;;;8.63;;
52102;SDS011;38101;53.126;6.878;2022-08-19T13:46:44;10.60;;;8.50;;
52102;SDS011;38101;53.126;6.878;2022-08-19T13:49:12;10.55;;;8.52;;
52102;SDS011;38101;53.126;6.878;2022-08-19T13:51:39;8.73;;;7.93;;
52102;SDS011;38101;53.126;6.878;2022-08-19T13:54:07;8.40;;;7.60;;
52102;SDS011;38101;53.126;6.878;2022-08-19T13:56:35;8.30;;;7.40;;
52102;SDS011;38101;53.126;6.878;2022-08-19T13:59:05;8.20;;;7.40;;
52102;SDS011;38101;53.126;6.878;2022-08-19T14:01:31;9.45;;;8.23;;
52102;SDS011;38101;53.126;6.878;2022-08-19T14:03:56;8.77;;;7.88;;
52102;SDS011;38101;53.126;6.878;2022-08-19T14:06:22;8.43;;;7.05;;
52102;SDS011;38101;53.126;6.878;2022-08-19T14:08:48;8.13;;;6.80;;
52102;SDS011;38101;53.126;6.878;2022-08-19T14:11:14;8.10;;;7.30;;
52102;SDS011;38101;53.126;6.878;2022-08-19T14:13:40;8.90;;;7.32;;
52102;SDS011;38101;53.126;6.878;2022-08-19T14:16:07;9.52;;;7.93;;
52102;SDS011;38101;53.126;6.878;2022-08-19T14:18:35;11.23;;;10.07;;
52102;SDS011;38101;53.126;6.878;2022-08-19T14:21:00;15.02;;;11.63;;
52102;SDS011;38101;53.126;6.878;2022-08-19T14:23:28;14.52;;;11.32;;
52102;SDS011;38101;53.126;6.878;2022-08-19T14:26:02;13.80;;;12.10;;
52102;SDS011;38101;53.126;6.878;2022-08-19T14:28:29;14.60;;;10.98;;
52102;SDS011;38101;53.126;6.878;2022-08-19T14:30:55;14.38;;;11.98;;
52102;SDS011;38101;53.126;6.878;2022-08-19T14:33:21;14.50;;;12.05;;
52102;SDS011;38101;53.126;6.878;2022-08-19T14:35:46;14.30;;;11.70;;
52102;SDS011;38101;53.126;6.878;2022-08-19T14:38:16;15.43;;;11.68;;
52102;SDS011;38101;53.126;6.878;2022-08-19T14:40:43;12.38;;;10.65;;
52102;SDS011;38101;53.126;6.878;2022-08-19T14:43:11;13.43;;;11.18;;
52102;SDS011;38101;53.126;6.878;2022-08-19T14:45:37;11.43;;;10.23;;
52102;SDS011;38101;53.126;6.878;2022-08-19T14:48:06;13.68;;;10.90;;
52102;SDS011;38101;53.126;6.878;2022-08-19T14:50:33;11.85;;;10.43;;
52102;SDS011;38101;53.126;6.878;2022-08-19T14:53:06;12.73;;;9.60;;
52102;SDS011;38101;53.126;6.878;2022-08-19T14:55:32;12.00;;;9.00;;
52102;SDS011;38101;53.126;6.878;2022-08-19T14:57:59;12.57;;;8.75;;